Huvudsida
METAR-TAF:

METAR-TAF

Flygplatser :

Sjeremetevos internationella flygplats

Moskva-Sjeremetievo, Ryssland

latitud: 55-58N, longitud: 037-25E, höjd: 190 m

Aktuellt väderrapport

Denna rapport gjordes för 27 minuter sedan, klockan 16:00 UTC
Vind 2 kt varierande vindriktning
Temperatur -7°C
Fuktighet 86%
Tryck 1035 hPa
Sikt: 3000 m
Mulet på en höjd av 1000 ft
lätt snö, fuktdis

METAR: UUEE 191600Z VRB01MPS 3000 -SN BR OVC010 M07/M09 Q1035 R06R/450136 R06C/450136 NOSIG

Tid: 19:27 (16:27 UTC)

Väderprognos

Denna rapport gjordes för 2 timmar och 29 minuter sedan, klockan 13:58 UTC
Prognos gäller från 19 kl. 15 UTC till 20 kl. 15 UTC
Vind 6 kt från syd
Sikt: 3100 m
Mulet på en höjd av 1100 ft
lätt snö
Temporärt
från 19 kl. 15 UTC till 20 kl. 06 UTC
Sikt: 1200 m
Mulet på en höjd av 600 ft
lätt snö, fuktdis

TAF: UUEE 191358Z 1915/2015 18003MPS 3100 -SN OVC011 TXM08/1915Z TNM12/2003Z TEMPO 1915/2006 1200 -SN BR OVC006

Aktuella väderrapporter och prognoser från 4000 flygplatser (METAR- och TAF-rapporter).

De tillgängliga stationerna syns som gula och röda prickar på kartan.

För musen över prickarna för att se namnen på stationerna.

Klicka sedan för att få väderrapporter och prognoser.

För att ändra kartan: Klicka på de gröna knapparna med ett svart kors på för att zooma in; den gröna knappen med ett streck på för att zooma ut; eller på de gröna pilarna för angränsande kartor.


METAR-TAF: